UTAT

Details ICAO UTAT (TAZ)
Name DASHOGUZ
Region Tajikistan, Turkmenistan and Uzbekistan
Timezone Asia/Ashgabat (UTC+5.0)
Plans Departing 12
Arriving 19
Stats Elevation 272 ft / 83 m (AMSL)
Location 41.760700° 59.837900°
Runways 2
Magnetic Variation 6.521° E
Sunrise 2021-01-16 03:26:17 UTC / 2021-01-16 08:26:17 Local
Sunset 2021-01-16 12:56:37 UTC / 2021-01-16 17:56:37 Local
Advertisement - Login to hide

Runways

ID Width Length Bearing (true/mag) Surface Threshold Overrun Markings Lighting
09L 138 ft / 42 m 8,845 ft / 2,696 m 90.01° / 83.49° ASPHALT 0 ft / 0 m 0 ft / 0 m APP EDGE THRESHOLD MALS
09R 98 ft / 30 m 4,893 ft / 1,491 m 89.99° / 83.47° ASPHALT 0 ft / 0 m 0 ft / 0 m APP
27L 98 ft / 30 m 4,893 ft / 1,491 m 270.01° / 263.48° ASPHALT 0 ft / 0 m 0 ft / 0 m APP
27R 138 ft / 42 m 8,845 ft / 2,696 m 270.03° / 263.51° ASPHALT 0 ft / 0 m 0 ft / 0 m APP EDGE THRESHOLD MALS

Map

Weather


0- 5 10 15 20 25 30 35+ Temperature / °C

Clouds and Precipitation
Forecast for 2021-01-16 06:00 UTC. Updated 5 hours ago

Ground ~20,000 ft ~40,000 ft Winds

METAR

UTAT 160800Z 31012KT 7000 NSC 07/01 Q1016 R26/CLRD70 NOSIG

TAF

TAF UTAT 160438Z 1606/1706 25016KT CAVOK TEMPO 1609/1614 31014G24KT TEMPO 1615/1703 3000 BR OVC005

Frequencies

Approach 124.70 MHz
Approach 131.70 MHz TRANSIT
Warning: Do not use this data for real-world aviation or navigation. No guarantee of current accuracy is given.